createdAt,value
2019-06-26T00:00:57.308Z,23.80
2019-06-26T00:02:58.968Z,23.70
2019-06-26T00:05:00.624Z,23.60
2019-06-26T00:07:02.394Z,23.50
2019-06-26T00:09:04.834Z,23.50
2019-06-26T00:11:06.518Z,23.50
2019-06-26T00:13:08.341Z,23.50
2019-06-26T00:15:10.101Z,23.40
2019-06-26T00:17:11.845Z,23.30
2019-06-26T00:19:13.525Z,23.30
2019-06-26T00:21:15.286Z,23.20
2019-06-26T00:23:16.949Z,23.20
2019-06-26T00:25:18.624Z,23.10
2019-06-26T00:27:20.477Z,23.10
2019-06-26T00:29:22.149Z,23.10
2019-06-26T00:31:23.826Z,23.10
2019-06-26T00:33:25.494Z,23.20
2019-06-26T00:35:27.152Z,23.20
2019-06-26T00:37:28.910Z,23.20
2019-06-26T00:39:30.569Z,23.20
2019-06-26T00:41:32.561Z,23.20
2019-06-26T00:43:42.266Z,23.20
2019-06-26T00:45:37.802Z,23.10
2019-06-26T00:47:39.471Z,23.00
2019-06-26T00:49:41.141Z,22.90
2019-06-26T00:51:42.831Z,22.90
2019-06-26T00:53:44.573Z,22.90
2019-06-26T00:55:46.243Z,22.90
2019-06-26T00:57:47.901Z,22.90
2019-06-26T00:59:49.585Z,22.90
2019-06-26T01:01:51.753Z,22.80
2019-06-26T01:03:56.119Z,22.90
2019-06-26T01:05:58.133Z,22.90
2019-06-26T01:07:59.877Z,22.80
2019-06-26T01:10:01.549Z,22.80
2019-06-26T01:12:03.221Z,22.70
2019-06-26T01:14:04.880Z,22.60
2019-06-26T01:16:06.553Z,22.50
2019-06-26T01:18:08.221Z,22.40
2019-06-26T01:20:09.885Z,22.50
2019-06-26T01:22:11.568Z,22.50
2019-06-26T01:24:13.380Z,22.50
2019-06-26T01:26:15.461Z,22.50
2019-06-26T01:28:17.112Z,22.60
2019-06-26T01:30:19.173Z,22.60
2019-06-26T01:32:20.842Z,22.50
2019-06-26T01:34:22.503Z,22.50
2019-06-26T01:36:24.270Z,22.30
2019-06-26T01:38:25.934Z,22.30
2019-06-26T01:40:27.611Z,22.40
2019-06-26T01:42:29.372Z,22.40
2019-06-26T01:44:31.027Z,22.40
2019-06-26T01:46:32.698Z,22.40
2019-06-26T01:48:34.653Z,22.30
2019-06-26T01:50:36.325Z,22.30
2019-06-26T01:52:37.990Z,22.30
2019-06-26T01:54:39.921Z,22.30
2019-06-26T01:56:41.609Z,22.40
2019-06-26T01:58:43.252Z,22.40
2019-06-26T02:00:44.939Z,22.30
2019-06-26T02:02:46.605Z,22.40
2019-06-26T02:04:48.290Z,22.30
2019-06-26T02:06:50.323Z,22.30
2019-06-26T02:08:52.008Z,22.30
2019-06-26T02:10:53.767Z,22.30
2019-06-26T02:12:55.426Z,22.30
2019-06-26T02:14:57.113Z,22.30
2019-06-26T02:16:58.885Z,22.30
2019-06-26T02:19:02.511Z,22.30
2019-06-26T02:21:04.183Z,22.30
2019-06-26T02:23:05.841Z,22.30
2019-06-26T02:25:07.505Z,22.20
2019-06-26T02:27:09.178Z,22.20
2019-06-26T02:29:10.834Z,22.20
2019-06-26T02:31:12.538Z,22.00
2019-06-26T02:33:14.438Z,22.00
2019-06-26T02:35:16.088Z,22.00
2019-06-26T02:37:17.757Z,22.00
2019-06-26T02:39:19.711Z,22.00
2019-06-26T02:41:21.472Z,22.00
2019-06-26T02:43:23.135Z,22.00
2019-06-26T02:45:24.798Z,21.90
2019-06-26T02:47:26.472Z,21.90
2019-06-26T02:49:28.140Z,21.80
2019-06-26T02:51:29.894Z,21.90
2019-06-26T02:53:31.563Z,22.00
2019-06-26T02:55:33.326Z,22.00
2019-06-26T02:57:35.006Z,22.00
2019-06-26T02:59:36.665Z,22.10
2019-06-26T03:01:38.342Z,22.00
2019-06-26T03:03:40.021Z,22.00
2019-06-26T03:05:41.681Z,22.00
2019-06-26T03:07:43.685Z,22.00
2019-06-26T03:09:45.375Z,22.00
2019-06-26T03:11:47.120Z,22.00
2019-06-26T03:13:48.778Z,22.00
2019-06-26T03:15:50.926Z,22.10
2019-06-26T03:17:55.677Z,22.10
2019-06-26T03:19:56.357Z,22.20
2019-06-26T03:21:58.490Z,22.20
2019-06-26T03:24:00.453Z,22.20
2019-06-26T03:26:02.129Z,22.20
2019-06-26T03:28:03.810Z,22.20
2019-06-26T03:30:05.569Z,22.30
2019-06-26T03:32:07.254Z,22.30
2019-06-26T03:34:09.003Z,22.40
2019-06-26T03:36:11.018Z,22.40
2019-06-26T03:38:12.697Z,22.40
2019-06-26T03:40:14.358Z,22.50
2019-06-26T03:42:16.038Z,22.50
2019-06-26T03:44:17.701Z,22.50
2019-06-26T03:46:19.380Z,22.60
2019-06-26T03:48:21.147Z,22.60
2019-06-26T03:50:22.813Z,22.80
2019-06-26T03:52:24.528Z,22.80
2019-06-26T03:54:26.284Z,22.90
2019-06-26T03:56:27.947Z,23.00
2019-06-26T03:58:29.625Z,23.10
2019-06-26T04:00:38.034Z,23.20
2019-06-26T04:02:39.757Z,23.20
2019-06-26T04:04:41.461Z,23.30
2019-06-26T04:06:43.126Z,23.30
2019-06-26T04:08:44.796Z,23.40
2019-06-26T04:10:46.453Z,23.50
2019-06-26T04:12:48.221Z,23.50
2019-06-26T04:14:50.124Z,23.60
2019-06-26T04:16:51.777Z,23.60
2019-06-26T04:18:53.449Z,23.60
2019-06-26T04:20:55.114Z,23.60
2019-06-26T04:22:56.793Z,23.60
2019-06-26T04:24:58.464Z,23.70
2019-06-26T04:27:00.938Z,23.70
2019-06-26T04:29:02.616Z,23.70
2019-06-26T04:31:04.276Z,23.80
2019-06-26T04:33:05.945Z,23.90
2019-06-26T04:35:07.660Z,23.90
2019-06-26T04:37:09.389Z,24.00
2019-06-26T04:39:11.058Z,24.00
2019-06-26T04:41:12.710Z,24.10
2019-06-26T04:43:14.380Z,24.10
2019-06-26T04:45:16.050Z,24.10
2019-06-26T04:47:17.726Z,24.20
2019-06-26T04:49:19.385Z,24.20
2019-06-26T04:51:21.056Z,24.30
2019-06-26T04:53:22.722Z,24.30
2019-06-26T04:55:24.381Z,24.40
2019-06-26T04:57:26.058Z,24.50
2019-06-26T04:59:27.732Z,24.50
2019-06-26T05:01:29.384Z,24.60
2019-06-26T05:03:31.075Z,24.70
2019-06-26T05:05:39.417Z,24.70
2019-06-26T05:07:36.681Z,24.80
2019-06-26T05:09:38.333Z,24.90
2019-06-26T05:11:39.990Z,25.00
2019-06-26T05:13:41.981Z,25.00
2019-06-26T05:15:43.658Z,25.10
2019-06-26T05:17:45.329Z,25.20
2019-06-26T05:19:46.985Z,25.20
2019-06-26T05:21:48.650Z,25.30
2019-06-26T05:23:50.317Z,25.40
2019-06-26T05:25:51.982Z,25.40
2019-06-26T05:27:53.656Z,25.50
2019-06-26T05:29:55.317Z,25.60
2019-06-26T05:31:56.975Z,25.70
2019-06-26T05:33:58.645Z,25.70
2019-06-26T05:36:00.641Z,25.80
2019-06-26T05:38:02.353Z,25.90
2019-06-26T05:40:06.037Z,26.00
2019-06-26T05:42:07.797Z,26.10
2019-06-26T05:44:09.456Z,26.20
2019-06-26T05:46:11.121Z,26.30
2019-06-26T05:48:12.789Z,26.40
2019-06-26T05:50:14.458Z,26.40
2019-06-26T05:52:16.802Z,26.60
2019-06-26T05:54:18.576Z,26.60
2019-06-26T05:56:20.241Z,26.70
2019-06-26T05:58:21.916Z,26.80
2019-06-26T06:00:23.593Z,26.90
2019-06-26T06:02:25.493Z,26.90
2019-06-26T06:04:27.172Z,27.10
2019-06-26T06:06:40.995Z,27.10
2019-06-26T06:08:32.440Z,27.20
2019-06-26T06:10:34.103Z,27.20
2019-06-26T06:12:35.761Z,27.40
2019-06-26T06:14:37.435Z,27.50
2019-06-26T06:16:47.417Z,27.60
2019-06-26T06:18:42.677Z,27.60
2019-06-26T06:20:44.341Z,27.70
2019-06-26T06:22:46.330Z,27.70
2019-06-26T06:24:48.072Z,27.80
2019-06-26T06:26:49.850Z,27.80
2019-06-26T06:28:51.593Z,27.90
2019-06-26T06:30:53.262Z,28.00
2019-06-26T06:32:55.182Z,28.10
2019-06-26T06:34:57.134Z,28.10
2019-06-26T06:36:58.793Z,28.20
2019-06-26T06:39:00.479Z,28.30
2019-06-26T06:41:02.151Z,28.40
2019-06-26T06:43:04.089Z,28.40
2019-06-26T06:45:05.897Z,28.60
2019-06-26T06:47:09.054Z,28.70
2019-06-26T06:49:11.289Z,28.90
2019-06-26T06:51:12.959Z,29.00
2019-06-26T06:53:14.714Z,29.10
2019-06-26T06:55:16.389Z,29.30
2019-06-26T06:57:18.050Z,29.40
2019-06-26T06:59:19.806Z,29.50
2019-06-26T07:01:21.463Z,29.60
2019-06-26T07:03:23.129Z,29.50
2019-06-26T07:05:24.818Z,29.70
2019-06-26T07:07:26.468Z,29.80
2019-06-26T07:09:28.161Z,29.90
2019-06-26T07:11:29.919Z,29.80
2019-06-26T07:13:31.576Z,29.80
2019-06-26T07:15:33.241Z,30.10
2019-06-26T07:17:34.933Z,30.00
2019-06-26T07:19:36.596Z,30.20
2019-06-26T07:21:38.255Z,30.20
2019-06-26T07:23:40.191Z,30.30
2019-06-26T07:25:41.865Z,30.40
2019-06-26T07:27:43.537Z,30.50
2019-06-26T07:29:45.232Z,30.50
2019-06-26T07:31:46.909Z,30.60
2019-06-26T07:33:48.608Z,30.80
2019-06-26T07:35:50.274Z,30.80
2019-06-26T07:37:51.938Z,31.00
2019-06-26T07:39:58.782Z,31.00
2019-06-26T07:41:57.438Z,31.20
2019-06-26T07:43:59.109Z,31.20
2019-06-26T07:46:00.784Z,31.10
2019-06-26T07:48:02.474Z,31.10
2019-06-26T07:50:04.289Z,31.20
2019-06-26T07:52:05.950Z,31.30
2019-06-26T07:54:07.626Z,31.40
2019-06-26T07:56:09.297Z,31.50
2019-06-26T07:58:10.968Z,31.50
2019-06-26T08:00:14.087Z,31.50
2019-06-26T08:02:15.850Z,31.60
2019-06-26T08:04:17.525Z,31.90
2019-06-26T08:06:19.197Z,32.10
2019-06-26T08:08:20.926Z,32.30
2019-06-26T08:10:22.636Z,32.30
2019-06-26T08:12:24.309Z,32.20
2019-06-26T08:14:26.005Z,32.20
2019-06-26T08:16:27.674Z,32.20
2019-06-26T08:18:29.346Z,32.20
2019-06-26T08:20:31.329Z,32.30
2019-06-26T08:22:33.296Z,32.40
2019-06-26T08:24:34.969Z,32.80
2019-06-26T08:26:36.627Z,32.90
2019-06-26T08:28:38.299Z,32.80
2019-06-26T08:30:39.989Z,32.80
2019-06-26T08:32:41.653Z,32.90
2019-06-26T08:34:43.348Z,33.00
2019-06-26T08:36:45.700Z,33.00
2019-06-26T08:38:47.356Z,33.10
2019-06-26T08:40:49.038Z,33.00
2019-06-26T08:42:50.748Z,33.00
2019-06-26T08:44:53.029Z,33.00
2019-06-26T08:46:54.725Z,33.10
2019-06-26T08:48:56.581Z,33.20
2019-06-26T08:50:58.426Z,33.20
2019-06-26T08:53:00.107Z,33.30
2019-06-26T08:55:02.205Z,33.20
2019-06-26T08:57:03.869Z,33.40
2019-06-26T08:59:05.532Z,33.40
2019-06-26T09:01:07.316Z,33.30
2019-06-26T09:03:08.984Z,33.40
2019-06-26T09:05:10.676Z,33.20
2019-06-26T09:07:12.338Z,33.60
2019-06-26T09:09:14.101Z,33.50
2019-06-26T09:11:15.839Z,33.80
2019-06-26T09:13:17.569Z,33.80
2019-06-26T09:15:19.549Z,34.10
2019-06-26T09:17:21.225Z,34.00
2019-06-26T09:19:22.912Z,33.90
2019-06-26T09:21:24.715Z,33.90
2019-06-26T09:23:26.453Z,34.10
2019-06-26T09:25:28.134Z,34.00
2019-06-26T09:27:29.803Z,34.00
2019-06-26T09:29:31.473Z,34.40
2019-06-26T09:31:33.149Z,34.40
2019-06-26T09:33:34.825Z,34.50
2019-06-26T09:35:36.517Z,34.70
2019-06-26T09:37:38.203Z,34.90
2019-06-26T09:39:39.958Z,34.90
2019-06-26T09:41:41.640Z,34.90
2019-06-26T09:43:43.640Z,35.20
2019-06-26T09:45:45.397Z,35.20
2019-06-26T09:47:47.067Z,35.40
2019-06-26T09:49:48.741Z,35.30
2019-06-26T09:51:50.421Z,35.30
2019-06-26T09:53:52.401Z,35.30
2019-06-26T09:55:54.151Z,35.50
2019-06-26T09:57:55.923Z,35.50
2019-06-26T09:59:57.606Z,35.30
2019-06-26T10:01:59.378Z,35.40
2019-06-26T10:04:01.068Z,35.40
2019-06-26T10:06:02.829Z,35.50
2019-06-26T10:08:04.493Z,35.40
2019-06-26T10:10:06.185Z,35.70
2019-06-26T10:12:07.863Z,35.80
2019-06-26T10:14:09.525Z,35.90
2019-06-26T10:16:11.214Z,35.80
2019-06-26T10:18:12.887Z,35.70
2019-06-26T10:20:14.560Z,35.70
2019-06-26T10:22:16.484Z,35.70
2019-06-26T10:24:18.211Z,35.60
2019-06-26T10:26:19.894Z,35.60
2019-06-26T10:28:21.558Z,35.40
2019-06-26T10:30:23.270Z,35.70
2019-06-26T10:32:24.936Z,35.80
2019-06-26T10:34:26.725Z,35.90
2019-06-26T10:36:28.406Z,35.80
2019-06-26T10:38:30.073Z,35.50
2019-06-26T10:40:32.055Z,35.50
2019-06-26T10:42:34.065Z,35.90
2019-06-26T10:44:35.736Z,35.90
2019-06-26T10:46:37.413Z,35.90
2019-06-26T10:48:39.102Z,36.10
2019-06-26T10:51:00.441Z,35.90
2019-06-26T10:53:02.400Z,35.80
2019-06-26T10:55:04.151Z,35.80
2019-06-26T10:57:05.912Z,35.90
2019-06-26T10:59:07.581Z,36.10
2019-06-26T11:01:09.322Z,36.40
2019-06-26T11:03:11.009Z,36.20
2019-06-26T11:05:12.758Z,35.90
2019-06-26T11:07:14.443Z,36.10
2019-06-26T11:09:16.532Z,36.30
2019-06-26T11:11:18.213Z,36.40
2019-06-26T11:13:19.896Z,36.20
2019-06-26T11:15:21.560Z,36.60
2019-06-26T11:17:23.236Z,36.80
2019-06-26T11:19:24.919Z,36.50
2019-06-26T11:21:26.597Z,36.40
2019-06-26T11:23:28.567Z,36.50
2019-06-26T11:25:30.482Z,36.60
2019-06-26T11:27:32.517Z,36.60
2019-06-26T11:29:34.191Z,36.80
2019-06-26T11:31:35.853Z,36.50
2019-06-26T11:33:37.566Z,36.60
2019-06-26T11:35:39.658Z,36.80
2019-06-26T11:37:41.424Z,36.90
2019-06-26T11:39:43.097Z,36.80
2019-06-26T11:41:44.781Z,36.90
2019-06-26T11:43:46.494Z,37.00
2019-06-26T11:45:48.218Z,37.00
2019-06-26T11:47:49.976Z,36.90
2019-06-26T11:49:59.726Z,37.10
2019-06-26T11:51:55.337Z,37.10
2019-06-26T11:53:58.986Z,36.90
2019-06-26T11:56:00.812Z,37.30
2019-06-26T11:58:02.560Z,37.20
2019-06-26T12:00:04.895Z,37.30
2019-06-26T12:02:06.601Z,36.90
2019-06-26T12:04:08.277Z,37.20
2019-06-26T12:06:18.111Z,37.00
2019-06-26T12:08:13.555Z,37.00
2019-06-26T12:10:16.317Z,37.00
2019-06-26T12:12:18.552Z,36.80
2019-06-26T12:14:20.667Z,36.80
2019-06-26T12:16:22.341Z,36.90
2019-06-26T12:18:24.021Z,36.60
2019-06-26T12:20:25.822Z,36.90
2019-06-26T12:22:27.777Z,37.00
2019-06-26T12:24:29.450Z,36.80
2019-06-26T12:26:31.214Z,36.80
2019-06-26T12:28:33.153Z,36.90
2019-06-26T12:30:34.830Z,36.80
2019-06-26T12:32:42.443Z,36.80
2019-06-26T12:34:40.335Z,36.90
2019-06-26T12:36:42.126Z,36.80
2019-06-26T12:38:43.792Z,36.90
2019-06-26T12:40:45.462Z,37.00
2019-06-26T12:42:47.137Z,36.60
2019-06-26T12:44:49.116Z,36.70
2019-06-26T12:46:50.788Z,36.80
2019-06-26T12:48:52.465Z,36.50
2019-06-26T12:50:54.146Z,36.80
2019-06-26T12:52:55.833Z,36.80
2019-06-26T12:54:57.510Z,36.70
2019-06-26T12:56:59.219Z,36.70
2019-06-26T12:59:00.949Z,36.70
2019-06-26T13:01:02.734Z,36.80
2019-06-26T13:03:04.426Z,36.90
2019-06-26T13:05:06.111Z,36.90
2019-06-26T13:07:07.789Z,36.80
2019-06-26T13:09:09.465Z,36.90
2019-06-26T13:11:11.136Z,36.40
2019-06-26T13:13:12.825Z,36.60
2019-06-26T13:15:14.490Z,36.50
2019-06-26T13:17:16.172Z,36.50
2019-06-26T13:19:17.976Z,36.70
2019-06-26T13:21:19.716Z,36.50
2019-06-26T13:23:21.393Z,36.60
2019-06-26T13:25:23.074Z,36.50
2019-06-26T13:27:25.036Z,36.40
2019-06-26T13:29:26.970Z,36.60
2019-06-26T13:31:28.645Z,36.70
2019-06-26T13:33:30.330Z,36.60
2019-06-26T13:35:31.996Z,36.40
2019-06-26T13:37:33.681Z,36.40
2019-06-26T13:39:35.353Z,36.70
2019-06-26T13:41:37.020Z,36.90
2019-06-26T13:43:38.966Z,36.70
2019-06-26T13:45:40.929Z,36.50
2019-06-26T13:47:42.660Z,36.20
2019-06-26T13:49:44.661Z,36.50
2019-06-26T13:51:46.393Z,36.60
2019-06-26T13:53:48.168Z,36.40
2019-06-26T13:55:49.850Z,36.30
2019-06-26T13:57:51.896Z,36.10
2019-06-26T13:59:53.637Z,36.00
2019-06-26T14:01:55.312Z,36.20
2019-06-26T14:03:57.009Z,36.00
2019-06-26T14:05:58.796Z,36.10
2019-06-26T14:08:00.487Z,36.10
2019-06-26T14:10:02.222Z,36.30
2019-06-26T14:12:03.889Z,35.90
2019-06-26T14:14:05.626Z,36.10
2019-06-26T14:16:07.552Z,36.00
2019-06-26T14:18:09.234Z,35.70
2019-06-26T14:20:10.906Z,35.70
2019-06-26T14:22:13.194Z,35.50
2019-06-26T14:24:15.173Z,35.00
2019-06-26T14:26:16.841Z,35.20
2019-06-26T14:28:19.847Z,35.20
2019-06-26T14:30:21.973Z,35.30
2019-06-26T14:32:23.633Z,35.20
2019-06-26T14:34:27.879Z,35.20
2019-06-26T14:36:28.997Z,34.80
2019-06-26T14:38:30.666Z,34.80
2019-06-26T14:40:32.344Z,34.40
2019-06-26T14:42:34.014Z,33.50
2019-06-26T14:44:35.688Z,32.70
2019-06-26T14:46:37.628Z,32.20
2019-06-26T14:48:39.620Z,31.50
2019-06-26T14:50:41.314Z,30.90
2019-06-26T14:52:45.852Z,30.60
2019-06-26T14:54:46.558Z,30.30
2019-06-26T14:56:48.229Z,29.90
2019-06-26T14:58:49.908Z,29.60
2019-06-26T15:00:51.857Z,29.30
2019-06-26T15:02:53.550Z,29.10
2019-06-26T15:04:55.301Z,29.10
2019-06-26T15:06:56.977Z,28.80
2019-06-26T15:08:59.006Z,28.70
2019-06-26T15:11:00.657Z,28.50
2019-06-26T15:13:02.580Z,28.60
2019-06-26T15:15:04.475Z,28.70
2019-06-26T15:17:06.334Z,28.90
2019-06-26T15:19:08.264Z,29.00
2019-06-26T15:21:09.934Z,29.20
2019-06-26T15:23:11.599Z,29.30
2019-06-26T15:25:14.586Z,29.50
2019-06-26T15:27:16.253Z,29.70
2019-06-26T15:29:17.937Z,29.70
2019-06-26T15:31:19.840Z,29.80
2019-06-26T15:33:21.531Z,30.00
2019-06-26T15:35:23.205Z,30.00
2019-06-26T15:37:25.192Z,30.00
2019-06-26T15:39:26.884Z,29.90
2019-06-26T15:41:28.534Z,29.90
2019-06-26T15:43:30.444Z,29.80
2019-06-26T15:45:32.434Z,29.80
2019-06-26T15:47:34.290Z,29.70
2019-06-26T15:49:36.507Z,29.50
2019-06-26T15:51:38.174Z,29.70
2019-06-26T15:53:40.086Z,29.70
2019-06-26T15:55:41.765Z,29.80
2019-06-26T15:57:43.433Z,29.80
2019-06-26T15:59:45.125Z,29.80
2019-06-26T16:01:46.803Z,29.70
2019-06-26T16:03:48.703Z,29.80
2019-06-26T16:05:50.382Z,29.90
2019-06-26T16:07:52.050Z,29.40
2019-06-26T16:09:53.725Z,29.50
2019-06-26T16:11:58.759Z,29.40
2019-06-26T16:13:59.184Z,29.20
2019-06-26T16:16:00.850Z,29.40
2019-06-26T16:18:08.225Z,29.30
2019-06-26T16:20:09.894Z,29.30
2019-06-26T16:22:11.908Z,29.10
2019-06-26T16:24:13.862Z,29.00
2019-06-26T16:26:23.800Z,29.10
2019-06-26T16:28:25.734Z,28.90
2019-06-26T16:30:27.681Z,29.00
2019-06-26T16:32:29.346Z,28.90
2019-06-26T16:34:31.024Z,28.70
2019-06-26T16:36:32.933Z,28.90
2019-06-26T16:38:34.924Z,29.00
2019-06-26T16:40:36.946Z,29.00
2019-06-26T16:42:38.623Z,28.80
2019-06-26T16:44:40.326Z,28.70
2019-06-26T16:46:59.202Z,28.60
2019-06-26T16:49:00.278Z,28.60
2019-06-26T16:51:02.054Z,28.40
2019-06-26T16:53:03.946Z,28.10
2019-06-26T16:55:05.630Z,28.20
2019-06-26T16:57:07.302Z,28.10
2019-06-26T16:59:10.278Z,28.10
2019-06-26T17:01:12.257Z,27.80
2019-06-26T17:03:13.957Z,27.80
2019-06-26T17:05:15.713Z,27.90
2019-06-26T17:07:17.411Z,27.80
2019-06-26T17:09:19.392Z,27.70
2019-06-26T17:11:21.425Z,27.60
2019-06-26T17:13:23.113Z,27.60
2019-06-26T17:15:24.809Z,27.50
2019-06-26T17:17:26.627Z,27.50
2019-06-26T17:19:28.281Z,27.40
2019-06-26T17:21:29.960Z,27.40
2019-06-26T17:23:31.958Z,27.40
2019-06-26T17:25:33.629Z,27.40
2019-06-26T17:27:35.473Z,27.40
2019-06-26T17:29:37.161Z,27.40
2019-06-26T17:31:38.958Z,27.20
2019-06-26T17:33:40.742Z,27.20
2019-06-26T17:35:42.674Z,27.30
2019-06-26T17:37:44.357Z,27.20
2019-06-26T17:39:46.041Z,27.20
2019-06-26T17:41:47.706Z,26.90
2019-06-26T17:43:49.709Z,26.70
2019-06-26T17:45:51.517Z,26.80
2019-06-26T17:47:53.202Z,26.70
2019-06-26T17:49:54.965Z,26.70
2019-06-26T17:51:56.628Z,26.60
2019-06-26T17:53:58.305Z,26.40
2019-06-26T17:56:00.330Z,26.40
2019-06-26T17:58:02.697Z,26.40
2019-06-26T18:00:04.818Z,26.20
2019-06-26T18:02:06.838Z,26.20
2019-06-26T18:04:08.500Z,26.00
2019-06-26T18:06:10.185Z,25.90
2019-06-26T18:08:11.885Z,25.90
2019-06-26T18:10:13.843Z,25.70
2019-06-26T18:12:15.513Z,25.60
2019-06-26T18:14:17.177Z,25.60
2019-06-26T18:16:18.857Z,25.50
2019-06-26T18:18:20.545Z,25.40
2019-06-26T18:20:22.252Z,25.30
2019-06-26T18:22:23.957Z,25.20
2019-06-26T18:24:26.035Z,25.20
2019-06-26T18:26:27.837Z,25.20
2019-06-26T18:28:29.534Z,25.00
2019-06-26T18:30:31.269Z,25.10
2019-06-26T18:32:32.953Z,25.10
2019-06-26T18:34:34.616Z,25.00
2019-06-26T18:36:36.290Z,24.80
2019-06-26T18:38:37.981Z,24.60
2019-06-26T18:40:39.707Z,24.60
2019-06-26T18:42:41.373Z,24.60
2019-06-26T18:44:43.047Z,24.40
2019-06-26T18:46:44.813Z,24.30
2019-06-26T18:48:46.478Z,24.10
2019-06-26T18:50:48.256Z,24.20
2019-06-26T18:52:50.070Z,24.00
2019-06-26T18:54:51.751Z,24.00
2019-06-26T18:56:53.525Z,23.90
2019-06-26T18:58:55.194Z,23.80
2019-06-26T19:00:56.878Z,23.60
2019-06-26T19:02:58.560Z,23.50
2019-06-26T19:05:00.222Z,23.20
2019-06-26T19:07:02.245Z,23.30
2019-06-26T19:09:05.213Z,23.10
2019-06-26T19:11:06.901Z,23.10
2019-06-26T19:13:08.550Z,23.10
2019-06-26T19:15:10.251Z,23.00
2019-06-26T19:17:11.928Z,22.80
2019-06-26T19:19:13.587Z,22.70
2019-06-26T19:21:15.266Z,22.70
2019-06-26T19:23:17.200Z,22.70
2019-06-26T19:25:18.870Z,22.60
2019-06-26T19:27:20.581Z,22.50
2019-06-26T19:29:22.251Z,22.40
2019-06-26T19:31:23.925Z,22.20
2019-06-26T19:33:25.871Z,21.90
2019-06-26T19:35:27.540Z,21.90
2019-06-26T19:37:29.214Z,22.00
2019-06-26T19:39:30.881Z,21.80
2019-06-26T19:41:32.591Z,21.80
2019-06-26T19:43:34.346Z,21.70
2019-06-26T19:45:36.014Z,21.60
2019-06-26T19:47:37.753Z,21.60
2019-06-26T19:49:39.424Z,21.60
2019-06-26T19:51:41.365Z,21.30
2019-06-26T19:53:43.291Z,21.30
2019-06-26T19:55:45.253Z,21.20
2019-06-26T19:57:46.938Z,21.10
2019-06-26T19:59:48.604Z,21.10
2019-06-26T20:01:51.419Z,21.00
2019-06-26T20:03:53.345Z,21.00
2019-06-26T20:05:55.012Z,21.00
2019-06-26T20:07:56.693Z,20.80
2019-06-26T20:10:01.748Z,20.90
2019-06-26T20:12:02.578Z,20.80
2019-06-26T20:14:04.244Z,20.80
2019-06-26T20:16:05.913Z,20.70
2019-06-26T20:18:07.599Z,20.60
2019-06-26T20:20:09.261Z,20.40
2019-06-26T20:22:10.940Z,20.50
2019-06-26T20:24:13.101Z,20.50
2019-06-26T20:26:14.760Z,20.50
2019-06-26T20:28:16.444Z,20.60
2019-06-26T20:30:22.105Z,20.50
2019-06-26T20:32:23.768Z,20.50
2019-06-26T20:34:25.447Z,20.40
2019-06-26T20:36:27.107Z,20.30
2019-06-26T20:38:28.789Z,20.20
2019-06-26T20:40:30.731Z,20.00
2019-06-26T20:42:32.402Z,20.00
2019-06-26T20:44:34.100Z,19.80
2019-06-26T20:46:35.857Z,19.70
2019-06-26T20:48:37.533Z,19.70
2019-06-26T20:50:39.501Z,19.70
2019-06-26T20:52:41.195Z,19.50
2019-06-26T20:54:56.763Z,19.40
2019-06-26T20:56:46.722Z,19.30
2019-06-26T20:58:48.768Z,19.30
2019-06-26T21:00:50.819Z,19.20
2019-06-26T21:02:54.283Z,19.10
2019-06-26T21:04:56.283Z,18.90
2019-06-26T21:06:58.085Z,18.90
2019-06-26T21:08:59.787Z,18.90
2019-06-26T21:11:01.449Z,18.70
2019-06-26T21:13:03.141Z,18.70
2019-06-26T21:15:05.014Z,18.70
2019-06-26T21:17:06.954Z,18.60
2019-06-26T21:19:08.651Z,18.50
2019-06-26T21:21:10.300Z,18.50
2019-06-26T21:23:18.365Z,18.50
2019-06-26T21:25:18.867Z,18.50
2019-06-26T21:27:19.184Z,18.60
2019-06-26T21:29:20.854Z,18.50
2019-06-26T21:31:22.508Z,18.60
2019-06-26T21:33:24.310Z,18.60
2019-06-26T21:35:26.067Z,18.60
2019-06-26T21:37:27.745Z,18.70
2019-06-26T21:39:29.681Z,18.70
2019-06-26T21:41:31.371Z,18.70
2019-06-26T21:43:33.041Z,18.60
2019-06-26T21:45:34.701Z,18.70
2019-06-26T21:47:36.381Z,18.80
2019-06-26T21:49:38.231Z,18.80
2019-06-26T21:51:40.342Z,18.70
2019-06-26T21:53:42.081Z,18.80
2019-06-26T21:55:43.834Z,18.70
2019-06-26T21:57:45.507Z,18.60
2019-06-26T21:59:47.440Z,18.60
2019-06-26T22:01:49.109Z,18.60
2019-06-26T22:03:50.792Z,18.50
2019-06-26T22:05:52.802Z,18.60
2019-06-26T22:07:54.475Z,18.50
2019-06-26T22:09:56.410Z,18.50
2019-06-26T22:12:00.758Z,18.40
2019-06-26T22:14:01.853Z,18.30
2019-06-26T22:16:03.822Z,18.00
2019-06-26T22:18:05.777Z,18.20
2019-06-26T22:20:11.279Z,18.10
2019-06-26T22:22:11.010Z,18.10
2019-06-26T22:24:12.692Z,18.20
2019-06-26T22:26:14.574Z,18.20
2019-06-26T22:28:16.714Z,18.20
2019-06-26T22:30:18.687Z,18.20
2019-06-26T22:32:20.458Z,18.10
2019-06-26T22:34:22.137Z,18.20
2019-06-26T22:36:23.806Z,18.20
2019-06-26T22:38:25.482Z,18.20
2019-06-26T22:40:27.158Z,18.20
2019-06-26T22:42:29.091Z,18.20
2019-06-26T22:44:30.769Z,18.30
2019-06-26T22:46:32.434Z,18.30
2019-06-26T22:48:34.105Z,18.20
2019-06-26T22:50:35.771Z,18.30
2019-06-26T22:52:37.775Z,18.30
2019-06-26T22:54:39.529Z,18.40
2019-06-26T22:56:41.197Z,18.20
2019-06-26T22:58:42.973Z,18.10
2019-06-26T23:00:47.750Z,17.90
2019-06-26T23:02:48.558Z,17.80
2019-06-26T23:04:50.234Z,17.80
2019-06-26T23:06:51.930Z,17.80
2019-06-26T23:08:54.867Z,17.80
2019-06-26T23:10:56.530Z,17.80
2019-06-26T23:12:58.203Z,17.70
2019-06-26T23:14:59.886Z,17.70
2019-06-26T23:17:01.560Z,17.60
2019-06-26T23:19:03.245Z,17.70
2019-06-26T23:21:04.938Z,17.70
2019-06-26T23:23:06.614Z,17.80
2019-06-26T23:25:08.372Z,17.80
2019-06-26T23:27:10.045Z,17.70
2019-06-26T23:29:11.722Z,17.80
2019-06-26T23:31:13.384Z,17.80
2019-06-26T23:33:15.078Z,17.80
2019-06-26T23:35:16.766Z,17.70
2019-06-26T23:37:18.422Z,17.70
2019-06-26T23:39:20.216Z,17.70
2019-06-26T23:41:21.891Z,17.60
2019-06-26T23:43:23.797Z,17.60
2019-06-26T23:45:25.476Z,17.70
2019-06-26T23:47:27.136Z,17.50
2019-06-26T23:49:28.818Z,17.50
2019-06-26T23:51:30.498Z,17.50
2019-06-26T23:53:32.174Z,17.40
2019-06-26T23:55:34.189Z,17.40
2019-06-26T23:57:35.858Z,17.30
2019-06-26T23:59:37.537Z,17.30
